OH54 weather

Medical Center Heliport
Columbus, Ohio, United States

Public forecast

Using degrees Fahrenheit for public forecast. Weather courtesy of forecast.io.

Closest aviation weather report (METAR) to Medical Center Heliport

Closest report is The Ohio State University Airport - Don Scott Field, 5.6 nm (10.4 km) NNW. Retrieved 2020/05/27 14:53 UTC (53 minutes ago):

KOSU 271453Z COR 18006KT 10SM CLR 25/18 A3006 RMK AO2 SLP170 T02500178 50001

Closest aviation forecast (TAF) to Medical Center Heliport

Closest forecast is John Glenn Columbus International Airport, 5.9 nm (11.0 km) E. Retrieved 2020/05/27 12:27 UTC (3 hours ago):

TAF KCMH 271124Z 2712/2812 14006KT P6SM SCT050 OVC150 FM272100 16008KT P6SM VCSH BKN035 OVC120 FM280300 14005KT P6SM OVC120